createdAt,value
2022-09-07T00:01:02.843Z,20.83
2022-09-07T00:03:30.824Z,19.88
2022-09-07T00:05:58.562Z,21.50
2022-09-07T00:08:27.545Z,21.52
2022-09-07T00:11:04.561Z,21.48
2022-09-07T00:13:35.065Z,26.17
2022-09-07T00:16:08.148Z,28.35
2022-09-07T00:18:35.564Z,22.73
2022-09-07T00:21:08.533Z,22.10
2022-09-07T00:23:38.459Z,20.00
2022-09-07T00:26:09.562Z,20.73
2022-09-07T00:28:37.653Z,23.42
2022-09-07T00:31:09.583Z,17.30
2022-09-07T00:33:37.232Z,22.90
2022-09-07T00:36:05.347Z,20.77
2022-09-07T00:38:32.733Z,19.35
2022-09-07T00:40:59.974Z,26.10
2022-09-07T00:43:44.464Z,24.27
2022-09-07T00:46:23.869Z,23.98
2022-09-07T00:49:08.312Z,20.63
2022-09-07T00:51:43.843Z,19.08
2022-09-07T00:54:17.832Z,17.90
2022-09-07T00:56:47.294Z,22.17
2022-09-07T00:59:20.259Z,19.63
2022-09-07T01:01:47.861Z,21.08
2022-09-07T01:04:16.443Z,19.38
2022-09-07T01:06:46.645Z,18.67
2022-09-07T01:09:17.282Z,23.60
2022-09-07T01:11:51.101Z,20.73
2022-09-07T01:14:22.963Z,25.52
2022-09-07T01:17:09.057Z,22.00
2022-09-07T01:19:42.991Z,20.48
2022-09-07T01:22:48.897Z,21.08
2022-09-07T01:25:55.738Z,19.23
2022-09-07T01:28:27.482Z,21.75
2022-09-07T01:30:58.000Z,22.92
2022-09-07T01:33:28.543Z,23.58
2022-09-07T01:36:30.703Z,24.75
2022-09-07T01:39:03.907Z,16.80
2022-09-07T01:41:36.100Z,17.48
2022-09-07T01:44:15.423Z,16.83
2022-09-07T01:46:50.588Z,15.32
2022-09-07T01:49:29.784Z,15.70
2022-09-07T01:52:03.908Z,17.25
2022-09-07T01:55:12.374Z,20.13
2022-09-07T01:57:56.618Z,21.42
2022-09-07T02:00:25.913Z,20.70
2022-09-07T02:03:03.654Z,18.33
2022-09-07T02:05:37.213Z,21.88
2022-09-07T02:08:27.974Z,21.95
2022-09-07T02:11:02.498Z,20.55
2022-09-07T02:13:38.733Z,19.63
2022-09-07T02:16:13.313Z,22.83
2022-09-07T02:18:50.194Z,21.75
2022-09-07T02:21:22.627Z,35.05
2022-09-07T02:24:03.452Z,22.83
2022-09-07T02:26:31.207Z,27.73
2022-09-07T02:28:58.535Z,28.48
2022-09-07T02:31:26.390Z,28.08
2022-09-07T02:33:54.006Z,27.42
2022-09-07T02:36:26.859Z,29.08
2022-09-07T02:38:54.412Z,24.60
2022-09-07T02:41:32.328Z,23.20
2022-09-07T02:44:01.307Z,24.85
2022-09-07T02:47:10.011Z,26.23
2022-09-07T02:50:15.347Z,24.35
2022-09-07T02:52:54.818Z,22.75
2022-09-07T02:55:31.529Z,24.67
2022-09-07T02:58:07.747Z,27.38
2022-09-07T03:00:45.263Z,19.25
2022-09-07T03:03:20.092Z,19.08
2022-09-07T03:06:01.423Z,21.50
2022-09-07T03:08:47.219Z,23.65
2022-09-07T03:11:15.423Z,20.77
2022-09-07T03:13:42.897Z,19.67
2022-09-07T03:16:16.640Z,16.95
2022-09-07T03:18:44.525Z,18.55
2022-09-07T03:21:11.897Z,19.10
2022-09-07T03:23:39.410Z,17.15
2022-09-07T03:26:07.052Z,15.88
2022-09-07T03:28:34.305Z,18.77
2022-09-07T03:31:02.429Z,15.00
2022-09-07T03:33:30.032Z,15.02
2022-09-07T03:35:59.976Z,14.05
2022-09-07T03:38:27.585Z,14.43
2022-09-07T03:41:01.663Z,17.05
2022-09-07T03:43:32.412Z,18.35
2022-09-07T03:46:02.070Z,14.52
2022-09-07T03:48:34.346Z,18.10
2022-09-07T03:51:07.542Z,19.48
2022-09-07T03:53:38.087Z,45.28
2022-09-07T03:56:12.682Z,29.15
2022-09-07T03:58:40.543Z,51.67
2022-09-07T04:01:12.688Z,47.72
2022-09-07T04:03:40.149Z,43.50
2022-09-07T04:06:07.902Z,47.67
2022-09-07T04:08:37.268Z,71.95
2022-09-07T04:11:09.967Z,86.60
2022-09-07T04:13:37.827Z,147.27
2022-09-07T04:16:23.573Z,103.20
2022-09-07T04:21:19.262Z,252.55
2022-09-07T04:23:46.952Z,196.70
2022-09-07T04:26:23.602Z,161.43
2022-09-07T04:28:51.332Z,220.48
2022-09-07T04:31:20.858Z,163.77
2022-09-07T04:33:52.013Z,105.38
2022-09-07T04:36:23.290Z,85.53
2022-09-07T04:39:01.805Z,97.90
2022-09-07T04:41:31.292Z,58.60
2022-09-07T04:44:01.223Z,82.35
2022-09-07T04:46:37.962Z,68.93
2022-09-07T04:49:11.896Z,101.90
2022-09-07T04:51:40.413Z,86.30
2022-09-07T04:54:08.330Z,80.65
2022-09-07T04:56:35.812Z,57.42
2022-09-07T04:59:03.527Z,44.88
2022-09-07T05:01:33.288Z,58.20
2022-09-07T05:04:01.860Z,39.22
2022-09-07T05:06:32.262Z,42.15
2022-09-07T05:09:00.162Z,32.30
2022-09-07T05:11:29.440Z,27.30
2022-09-07T05:13:59.576Z,30.48
2022-09-07T05:16:28.291Z,24.13
2022-09-07T05:19:02.096Z,24.30
2022-09-07T05:21:32.213Z,25.58
2022-09-07T05:24:00.833Z,22.75
2022-09-07T05:26:30.193Z,24.00
2022-09-07T05:31:48.371Z,25.73
2022-09-07T05:34:31.579Z,18.80
2022-09-07T05:36:59.852Z,24.77
2022-09-07T05:39:27.921Z,27.13
2022-09-07T05:41:55.258Z,27.27
2022-09-07T05:47:10.753Z,28.75
2022-09-07T05:49:38.488Z,26.67
2022-09-07T05:52:05.989Z,42.30
2022-09-07T05:54:33.342Z,40.63
2022-09-07T05:57:03.184Z,28.55
2022-09-07T05:59:30.714Z,27.95
2022-09-07T06:01:58.093Z,36.08
2022-09-07T06:04:25.934Z,29.95
2022-09-07T06:07:20.151Z,31.50
2022-09-07T06:12:28.907Z,29.08
2022-09-07T06:14:56.403Z,47.38
2022-09-07T06:17:23.722Z,32.15
2022-09-07T06:19:50.963Z,29.92
2022-09-07T06:22:21.263Z,37.35
2022-09-07T06:24:48.532Z,34.65
2022-09-07T06:27:15.748Z,38.15
2022-09-07T06:29:43.327Z,34.95
2022-09-07T06:34:58.105Z,37.30
2022-09-07T06:37:25.283Z,36.05
2022-09-07T06:39:52.566Z,34.65
2022-09-07T06:42:20.020Z,35.47
2022-09-07T06:44:52.583Z,38.42
2022-09-07T06:47:19.978Z,37.55
2022-09-07T06:49:47.532Z,38.30
2022-09-07T06:52:14.778Z,31.58
2022-09-07T06:57:27.258Z,39.92
2022-09-07T06:59:54.578Z,35.63
2022-09-07T07:02:21.904Z,34.40
2022-09-07T07:04:50.173Z,31.77
2022-09-07T07:07:17.434Z,30.73
2022-09-07T07:09:44.677Z,26.75
2022-09-07T07:12:12.138Z,21.48
2022-09-07T07:14:44.767Z,21.75
2022-09-07T07:17:13.687Z,26.40
2022-09-07T07:19:41.007Z,28.25
2022-09-07T07:22:23.926Z,22.55
2022-09-07T07:24:56.066Z,28.60
2022-09-07T07:27:23.384Z,26.95
2022-09-07T07:29:50.797Z,29.83
2022-09-07T07:32:18.811Z,24.88
2022-09-07T07:34:46.340Z,18.88
2022-09-07T07:37:13.452Z,18.98
2022-09-07T07:42:29.089Z,17.63
2022-09-07T07:47:44.302Z,16.00
2022-09-07T07:55:46.922Z,29.05
2022-09-07T07:58:14.156Z,28.88
2022-09-07T08:00:54.368Z,20.65
2022-09-07T08:03:24.085Z,20.30
2022-09-07T08:05:51.719Z,22.90
2022-09-07T08:08:19.602Z,17.45
2022-09-07T08:10:48.077Z,15.68
2022-09-07T08:13:16.595Z,13.40
2022-09-07T08:15:47.086Z,11.77
2022-09-07T08:18:16.585Z,13.68
2022-09-07T08:20:44.199Z,18.35
2022-09-07T08:23:12.039Z,10.52
2022-09-07T08:25:48.726Z,15.60
2022-09-07T08:28:15.956Z,13.13
2022-09-07T08:30:43.923Z,26.48
2022-09-07T08:33:11.147Z,19.75
2022-09-07T08:35:38.370Z,34.08
2022-09-07T08:38:05.868Z,17.33
2022-09-07T08:40:37.310Z,19.17
2022-09-07T08:43:07.348Z,24.85
2022-09-07T08:45:43.762Z,19.85
2022-09-07T08:48:15.020Z,11.88
2022-09-07T08:51:01.098Z,16.00
2022-09-07T08:56:02.407Z,9.10
2022-09-07T08:58:53.381Z,4.53
2022-09-07T09:01:31.475Z,13.82
2022-09-07T09:04:16.032Z,8.93
2022-09-07T09:07:16.714Z,10.82
2022-09-07T09:10:07.182Z,21.58
2022-09-07T09:13:22.763Z,18.10
2022-09-07T09:16:21.898Z,15.65
2022-09-07T09:19:06.442Z,8.88
2022-09-07T09:21:35.785Z,12.27
2022-09-07T09:24:15.892Z,13.45
2022-09-07T09:26:48.523Z,20.98
2022-09-07T09:29:19.862Z,9.45
2022-09-07T09:31:47.555Z,7.28
2022-09-07T09:34:23.743Z,7.72
2022-09-07T09:36:56.715Z,8.93
2022-09-07T09:39:35.592Z,12.40
2022-09-07T09:42:12.148Z,6.95
2022-09-07T09:44:40.081Z,5.25
2022-09-07T09:47:37.466Z,9.13
2022-09-07T09:53:07.349Z,7.80
2022-09-07T09:55:38.188Z,10.15
2022-09-07T10:06:21.825Z,7.13
2022-09-07T10:08:53.372Z,3.78
2022-09-07T10:12:07.349Z,4.15
2022-09-07T10:14:46.900Z,4.78
2022-09-07T10:17:25.302Z,8.75
2022-09-07T10:19:52.814Z,9.55
2022-09-07T10:22:35.933Z,6.57
2022-09-07T10:25:24.994Z,7.68
2022-09-07T10:28:10.229Z,4.45
2022-09-07T10:31:14.548Z,6.22
2022-09-07T10:34:26.300Z,5.63
2022-09-07T10:36:57.212Z,7.80
2022-09-07T10:39:42.199Z,10.25
2022-09-07T10:42:10.018Z,10.07
2022-09-07T10:44:58.763Z,17.75
2022-09-07T10:47:28.875Z,5.95
2022-09-07T10:53:39.493Z,9.85
2022-09-07T10:56:15.241Z,2.25
2022-09-07T10:59:06.094Z,3.10
2022-09-07T11:01:54.232Z,2.35
2022-09-07T11:04:38.380Z,3.88
2022-09-07T11:07:15.724Z,2.80
2022-09-07T11:09:57.998Z,2.97
2022-09-07T11:12:34.882Z,5.78
2022-09-07T11:15:21.608Z,3.85
2022-09-07T11:17:54.602Z,6.10
2022-09-07T11:20:24.573Z,6.95
2022-09-07T11:23:11.961Z,2.47
2022-09-07T11:25:53.513Z,2.10
2022-09-07T11:28:26.482Z,2.15
2022-09-07T11:31:00.634Z,3.50
2022-09-07T11:34:23.740Z,4.67
2022-09-07T11:36:44.435Z,2.45
2022-09-07T11:39:19.006Z,1.75
2022-09-07T11:42:42.691Z,2.33
2022-09-07T11:45:17.514Z,4.97
2022-09-07T11:48:00.157Z,2.85
2022-09-07T11:50:33.021Z,5.35
2022-09-07T11:53:14.543Z,2.38
2022-09-07T11:55:45.925Z,5.85
2022-09-07T11:58:19.777Z,29.23
2022-09-07T12:01:06.778Z,15.48
2022-09-07T12:04:19.176Z,10.85
2022-09-07T12:07:07.962Z,8.73
2022-09-07T12:09:52.423Z,52.97
2022-09-07T12:12:39.808Z,5.68
2022-09-07T12:15:32.212Z,27.42
2022-09-07T12:17:59.442Z,217.75
2022-09-07T12:20:39.523Z,16.17
2022-09-07T12:23:28.217Z,14.40
2022-09-07T12:26:35.900Z,3.70
2022-09-07T12:29:17.858Z,9.13
2022-09-07T12:32:07.984Z,6.40
2022-09-07T12:35:08.007Z,4.80
2022-09-07T12:37:40.365Z,7.78
2022-09-07T12:40:29.093Z,5.00
2022-09-07T12:43:14.425Z,4.82
2022-09-07T12:45:51.062Z,3.08
2022-09-07T12:48:18.608Z,8.35
2022-09-07T12:51:00.515Z,2.40
2022-09-07T12:54:11.172Z,4.78
2022-09-07T13:00:07.150Z,3.33
2022-09-07T13:06:16.619Z,3.50
2022-09-07T13:09:21.235Z,4.63
2022-09-07T13:11:48.643Z,2.55
2022-09-07T13:14:16.720Z,5.20
2022-09-07T13:19:46.093Z,5.30
2022-09-07T13:22:31.453Z,4.30
2022-09-07T13:25:05.363Z,5.07
2022-09-07T13:27:51.257Z,2.55
2022-09-07T13:31:00.785Z,5.40
2022-09-07T13:33:28.082Z,5.43
2022-09-07T13:36:00.994Z,3.75
2022-09-07T13:38:30.450Z,3.55
2022-09-07T13:41:06.403Z,3.15
2022-09-07T13:43:35.052Z,3.00
2022-09-07T13:46:08.341Z,4.03
2022-09-07T13:48:38.664Z,8.27
2022-09-07T13:51:14.252Z,8.75
2022-09-07T13:53:56.813Z,5.28
2022-09-07T13:56:30.146Z,10.40
2022-09-07T13:58:57.617Z,6.07
2022-09-07T14:01:27.141Z,5.70
2022-09-07T14:04:00.084Z,12.40
2022-09-07T14:06:31.363Z,24.52
2022-09-07T14:09:14.025Z,16.02
2022-09-07T14:11:49.817Z,19.13
2022-09-07T14:14:26.452Z,9.00
2022-09-07T14:17:00.397Z,4.57
2022-09-07T14:19:43.613Z,12.23
2022-09-07T14:22:20.867Z,11.35
2022-09-07T14:25:08.481Z,7.10
2022-09-07T14:27:37.403Z,10.23
2022-09-07T14:30:28.343Z,8.27
2022-09-07T14:33:00.766Z,8.63
2022-09-07T14:35:33.700Z,8.73
2022-09-07T14:41:20.884Z,6.55
2022-09-07T14:43:54.129Z,4.28
2022-09-07T14:46:36.146Z,8.30
2022-09-07T14:49:15.288Z,3.60
2022-09-07T14:51:45.802Z,3.20
2022-09-07T14:54:20.922Z,4.25
2022-09-07T14:57:01.294Z,6.78
2022-09-07T14:59:42.974Z,23.42
2022-09-07T15:02:19.437Z,25.55
2022-09-07T15:04:49.516Z,17.90
2022-09-07T15:07:30.787Z,6.15
2022-09-07T15:10:32.973Z,12.43
2022-09-07T15:13:01.966Z,15.38
2022-09-07T15:15:41.930Z,8.13
2022-09-07T15:18:40.487Z,5.55
2022-09-07T15:21:10.815Z,6.22
2022-09-07T15:23:38.415Z,17.58
2022-09-07T15:26:06.154Z,6.97
2022-09-07T15:34:16.030Z,12.13
2022-09-07T15:36:52.457Z,8.63
2022-09-07T15:39:22.561Z,11.05
2022-09-07T15:41:51.638Z,5.85
2022-09-07T15:44:24.324Z,7.25
2022-09-07T15:49:50.005Z,6.97
2022-09-07T15:52:18.033Z,9.70
2022-09-07T15:54:47.543Z,8.73
2022-09-07T16:00:03.533Z,14.43
2022-09-07T16:05:31.229Z,4.75
2022-09-07T16:10:54.260Z,12.05
2022-09-07T16:13:24.430Z,8.07
2022-09-07T16:15:52.143Z,11.45
2022-09-07T16:18:19.939Z,21.30
2022-09-07T16:20:47.933Z,13.32
2022-09-07T16:23:19.791Z,10.88
2022-09-07T16:25:58.952Z,4.65
2022-09-07T16:28:27.930Z,4.75
2022-09-07T16:30:56.314Z,6.32
2022-09-07T16:33:32.792Z,10.70
2022-09-07T16:36:07.157Z,15.15
2022-09-07T16:38:50.132Z,8.55
2022-09-07T16:41:20.803Z,9.65
2022-09-07T16:43:49.618Z,9.10
2022-09-07T16:46:19.907Z,10.52
2022-09-07T16:48:48.012Z,11.63
2022-09-07T16:51:17.552Z,6.30
2022-09-07T16:53:46.022Z,14.55
2022-09-07T16:56:16.966Z,8.23
2022-09-07T16:58:47.601Z,17.20
2022-09-07T17:01:17.926Z,13.60
2022-09-07T17:03:45.555Z,36.72
2022-09-07T17:06:14.602Z,23.73
2022-09-07T17:08:42.710Z,23.60
2022-09-07T17:11:12.818Z,21.80
2022-09-07T17:13:41.573Z,27.75
2022-09-07T17:16:23.924Z,37.65
2022-09-07T17:21:40.405Z,78.47
2022-09-07T17:24:09.863Z,63.88
2022-09-07T17:26:37.432Z,54.72
2022-09-07T17:29:04.974Z,45.33
2022-09-07T17:34:21.242Z,32.38
2022-09-07T17:36:49.052Z,25.13
2022-09-07T17:39:18.139Z,41.10
2022-09-07T17:41:48.980Z,30.77
2022-09-07T17:44:17.184Z,33.60
2022-09-07T17:46:44.453Z,32.25
2022-09-07T17:49:14.226Z,38.63
2022-09-07T17:51:41.669Z,48.75
2022-09-07T17:54:13.924Z,53.95
2022-09-07T17:56:42.147Z,50.40
2022-09-07T18:01:57.373Z,42.75
2022-09-07T18:04:24.929Z,38.28
2022-09-07T18:06:54.364Z,32.85
2022-09-07T18:09:22.224Z,33.50
2022-09-07T18:11:50.331Z,41.78
2022-09-07T18:14:19.140Z,41.78
2022-09-07T18:16:49.990Z,43.28
2022-09-07T18:19:18.964Z,39.97
2022-09-07T18:21:48.012Z,41.03
2022-09-07T18:24:19.932Z,35.92
2022-09-07T18:26:50.646Z,32.60
2022-09-07T18:29:31.310Z,36.45
2022-09-07T18:32:08.524Z,30.60
2022-09-07T18:34:40.571Z,30.98
2022-09-07T18:37:09.283Z,29.70
2022-09-07T18:39:36.885Z,40.42
2022-09-07T18:42:04.692Z,29.50
2022-09-07T18:47:27.910Z,31.85
2022-09-07T18:49:59.243Z,30.75
2022-09-07T18:55:15.884Z,36.00
2022-09-07T18:57:43.381Z,33.03
2022-09-07T19:00:12.098Z,43.00
2022-09-07T19:02:39.434Z,32.30
2022-09-07T19:07:54.971Z,36.45
2022-09-07T19:10:23.322Z,36.22
2022-09-07T19:12:50.561Z,46.42
2022-09-07T19:15:17.749Z,46.35
2022-09-07T19:17:45.365Z,53.88
2022-09-07T19:20:12.562Z,48.45
2022-09-07T19:22:39.963Z,49.25
2022-09-07T19:25:07.652Z,44.85
2022-09-07T19:27:35.052Z,47.47
2022-09-07T19:30:02.254Z,46.45
2022-09-07T19:32:30.023Z,52.95
2022-09-07T19:34:57.205Z,50.00
2022-09-07T19:37:25.871Z,44.17
2022-09-07T19:39:57.022Z,46.33
2022-09-07T19:42:25.654Z,40.38
2022-09-07T19:44:54.326Z,44.10
2022-09-07T19:47:22.386Z,42.85
2022-09-07T19:49:49.603Z,59.13
2022-09-07T19:52:16.854Z,80.15
2022-09-07T19:54:44.539Z,73.65
2022-09-07T19:57:11.924Z,56.92
2022-09-07T19:59:39.789Z,54.03
2022-09-07T20:02:09.759Z,59.70
2022-09-07T20:04:37.048Z,47.67
2022-09-07T20:07:04.409Z,40.53
2022-09-07T20:09:32.043Z,44.95
2022-09-07T20:12:01.955Z,52.40
2022-09-07T20:14:29.588Z,55.20
2022-09-07T20:16:57.644Z,51.30
2022-09-07T20:19:24.991Z,46.78
2022-09-07T20:21:55.878Z,57.03
2022-09-07T20:24:23.853Z,46.72
2022-09-07T20:26:51.077Z,51.50
2022-09-07T20:29:33.807Z,52.60
2022-09-07T20:32:01.937Z,47.63
2022-09-07T20:34:29.447Z,62.10
2022-09-07T20:36:57.405Z,47.45
2022-09-07T20:39:25.813Z,42.63
2022-09-07T20:41:53.227Z,37.33
2022-09-07T20:44:20.496Z,30.02
2022-09-07T20:46:48.237Z,30.98
2022-09-07T20:49:16.042Z,32.92
2022-09-07T20:51:43.340Z,43.15
2022-09-07T20:54:10.819Z,33.10
2022-09-07T20:56:38.237Z,48.88
2022-09-07T20:59:05.545Z,76.13
2022-09-07T21:01:34.589Z,57.72
2022-09-07T21:04:02.054Z,48.20
2022-09-07T21:06:31.349Z,55.47
2022-09-07T21:08:59.140Z,52.72
2022-09-07T21:11:34.580Z,77.68
2022-09-07T21:14:12.134Z,63.92
2022-09-07T21:16:39.977Z,54.80
2022-09-07T21:19:09.269Z,56.03
2022-09-07T21:21:45.504Z,68.80
2022-09-07T21:24:19.164Z,62.15
2022-09-07T21:26:47.492Z,46.70
2022-09-07T21:29:26.017Z,35.65
2022-09-07T21:31:53.845Z,25.38
2022-09-07T21:34:22.375Z,28.25
2022-09-07T21:36:52.376Z,26.65
2022-09-07T21:39:20.968Z,31.90
2022-09-07T21:41:48.549Z,28.55
2022-09-07T21:44:18.754Z,26.42
2022-09-07T21:46:46.100Z,33.95
2022-09-07T21:49:13.934Z,25.08
2022-09-07T21:51:41.163Z,27.38
2022-09-07T21:54:08.897Z,27.77
2022-09-07T21:56:36.769Z,25.45
2022-09-07T21:59:04.915Z,25.40
2022-09-07T22:01:33.595Z,27.67
2022-09-07T22:04:05.262Z,29.20
2022-09-07T22:06:33.778Z,29.20
2022-09-07T22:09:01.740Z,37.70
2022-09-07T22:11:29.938Z,32.25
2022-09-07T22:13:59.515Z,32.08
2022-09-07T22:16:27.139Z,27.15
2022-09-07T22:18:54.543Z,23.35
2022-09-07T22:21:26.978Z,20.17
2022-09-07T22:24:00.844Z,23.40
2022-09-07T22:26:30.536Z,60.53
2022-09-07T22:29:05.190Z,118.60
2022-09-07T22:31:37.456Z,106.20
2022-09-07T22:34:08.511Z,79.07
2022-09-07T22:36:39.067Z,126.88
2022-09-07T22:39:12.468Z,88.72
2022-09-07T22:41:40.741Z,64.53
2022-09-07T22:44:11.588Z,45.97
2022-09-07T22:46:40.559Z,47.17
2022-09-07T22:49:08.124Z,49.63
2022-09-07T22:51:35.693Z,48.75
2022-09-07T22:54:02.953Z,44.13
2022-09-07T22:56:32.603Z,51.83
2022-09-07T22:59:03.535Z,42.97
2022-09-07T23:01:32.242Z,50.83
2022-09-07T23:04:00.691Z,40.83
2022-09-07T23:06:34.779Z,42.03
2022-09-07T23:09:06.302Z,62.00
2022-09-07T23:11:34.046Z,74.40
2022-09-07T23:14:06.743Z,47.50
2022-09-07T23:16:34.682Z,161.82
2022-09-07T23:19:01.954Z,101.32
2022-09-07T23:21:29.578Z,195.43
2022-09-07T23:23:58.963Z,98.43
2022-09-07T23:26:28.951Z,123.32
2022-09-07T23:29:01.369Z,97.38
2022-09-07T23:31:31.005Z,121.47
2022-09-07T23:33:58.915Z,79.32
2022-09-07T23:36:26.802Z,60.55
2022-09-07T23:38:59.563Z,62.67
2022-09-07T23:41:27.653Z,55.67
2022-09-07T23:43:55.141Z,42.30
2022-09-07T23:46:23.298Z,63.22
2022-09-07T23:48:50.821Z,47.28
2022-09-07T23:51:23.414Z,89.10
2022-09-07T23:53:52.818Z,94.95
2022-09-07T23:56:20.739Z,61.25
2022-09-07T23:58:48.073Z,54.03
